AirNav   Phillips 66 Aviation Fuel
 
 341 users online  

00OI Miami Valley Hospital Heliport
Dayton, Ohio, USA

GOING TO DAYTON?


FAA INFORMATION EFFECTIVE 06 DECEMBER 2018

Location

FAA Identifier: 00OI
Lat/Long: 39-44-41.7082N / 084-11-14.1406W
39-44.695137N / 084-11.235677W
39.7449189 / -84.1872613
(estimated)
Elevation: 847 ft. / 258 m (estimated)
Variation: 06W (2015)
Time zone: UTC -5 (UTC -4 during Daylight Saving Time)
Zip code: 45409

Heliport Operations

Heliport use: Private use, MEDICAL USE.
Activation date: 12/1983
Control tower: no
ARTCC: INDIANAPOLIS CENTER
FSS: DAYTON FLIGHT SERVICE STATION
Attendance: CONTINUOUS
Wind indicator: yes
Segmented circle: no
Beacon: white-green-yellow (heliport)
Operates sunset to sunrise.

Heliport Communications

UNICOM: 123.05
WX ASOS at MGY (10 nm S): 118.375 (937-885-2171)
WX AWOS-3 at I19 (10 nm E): 118.525 (937-372-4668)
WX ASOS at DAY (10 nm N): PHONE 937-415-6819
WX AWOS-3 at MWO (16 nm SW): 120.025 (513-422-3505)
WX AWOS-3PT at SGH (17 nm E): 134.975
WX AWOS-3 at I68 (17 nm S): 120.55 (513-934-5500)

Nearby radio navigation aids

VOR radial/distance  VOR name  Freq  Var
SGHr255/16.7SPRINGFIELD VOR/DME113.2004W
DQNr150/18.9DAYTON VOR/DME114.5001W
MXQr321/26.0MIDWEST VOR/DME112.9004W
RIDr094/30.1RICHMOND VORTAC110.6003W
RODr196/33.2ROSEWOOD VORTAC117.5005W

 
NDB name  Hdg/Dist  Freq  Var  ID
BRUNY138/9.231506WAT .- -
ONIDA036/11.822304WMW -- .--
HOOK FIELD043/19.023904WHKF .... -.- ..-.
CLARK COUNTY252/20.334104WCCJ -.-. -.-. .---
MADEIRA018/32.337904WMDE -- -.. .
CINCINNATI015/35.833504WLUK .-.. ..- -.-
COURT HOUSE289/37.741406WCSS -.-. ... ...

Heliport Services

Runway Information

Helipad H1

Dimensions: 42 x 42 ft. / 13 x 13 m
Surface: concrete
ROOFTOP.
Latitude: 39-44.695137N
Longitude: 084-11.235677W
Elevation: 847.0 ft.
Traffic pattern: leftleft

Heliport Ownership and Management from official FAA records

Ownership: Privately-owned
Owner: MIAMI VALLEY HOSPITAL
ONE WYOMING STREET
DAYTON, OH 45409
Phone 513-220-2221
Manager: CANDACE SKIDMORE
ONE WYOMING STREET
DAYTON, OH 45409
Phone 513-220-2044
BETH CALCIDISE 937-208-4347 ADDITIONAL CONTACT: KEITH SHIVERS 1385 BOURDEAUX WAY DAYTON, OH 48484

Heliport Operational Statistics

Aircraft based on the field: 1
Helicopters: 1
    

Instrument Procedures

There are no published instrument procedures at 00OI.

Some nearby airports with instrument procedures:

KFFO - Wright-Patterson Air Force Base (8 nm NE)
KMGY - Dayton-Wright Brothers Airport (10 nm S)
I19 - Greene County-Lewis A Jackson Regional Airport (10 nm E)
KDAY - James M Cox Dayton International Airport (10 nm N)
3I7 - Dayton-Phillipsburg Airport (14 nm NW)
KMWO - Middletown Regional Airport/Hook Field (16 nm SW)
KSGH - Springfield-Beckley Municipal Airport (17 nm E)
I68 - Warren County Airport/John Lane Field (17 nm S)
 
Loc | Ops | Rwys | IFR | FBO | Links
Com | Nav | Svcs | Stats | Notes


 
Area around 00OI (Miami Valley Hospital Heliport)
 
Road maps at: MapQuest Bing Google
 
Aerial photo
No photo
 
Sectional chart

 
Airport distance calculator
Flying to Miami Valley Hospital Heliport? Find the distance to fly.

From to 00OI

Sunrise and sunset
Times for 17-Dec-2018
 Local
(UTC-5)
 Zulu
(UTC)
Morning civil twilight07:2312:23
Sunrise07:5312:53
Sunset17:1322:13
Evening civil twilight17:4322:43

Current date and time
Zulu (UTC)  17-Dec-2018 08:51:24
Local (UTC-5)  17-Dec-2018 03:51:24
 
METAR
KFFO 
8nm NE 
170756Z 22004KT 7SM BCFG M01/M02 A3004 RMK AO2A SLP183 T10141020
KMGY 
9nm S 
170753Z AUTO 24005KT 10SM CLR 03/01 A3005 RMK AO2 SLP179 T00280006
KDAY 
9nm N 
170756Z 25008KT 8SM CLR M01/M02 A3004 RMK AO2 SLP178 T10061022 $
KMWO 
16nm SW 
170835Z AUTO 25003KT 1/2SM FZFG VV005 M02/M02 A3007 RMK AO2 T10161017
KI68 
17nm S 
170835Z AUTO 24004KT 10SM CLR 02/02 A3006 RMK AO1 T00160016
KSGH 
18nm E 
170756Z AUTO 26007KT 10SM CLR 01/01 A3004 RMK AO2 SLP182 T00110006
TAF
KFFO 
8nm NE 
170705Z 1707/1809 26006KT 8000 BCFG SKC QNH3004INS BECMG 1708/1709 27006KT 8000 BR SKC QNH3004INS BECMG 1713/1714 30012KT 9999 NSW BKN007 620071 QNH3010INS BECMG 1719/1720 30009KT 9999 BKN015 620152 QNH3015INS BECMG 1722/1723 30009KT 9999 BKN020 620201 QNH3018INS TX05/1718Z TNM02/1711Z
KDAY 
9nm N 
170532Z 1706/1806 26008KT P6SM SKC FM171200 29010KT P6SM SKC FM171600 32011KT P6SM SCT045 FM180000 31010KT P6SM SKC
NOTAMs
Click for the latest NOTAMs
NOTAMs are issued by the DoD/FAA and will open in a separate window not controlled by AirNav.

 

 
 

Would you like to see your business listed on this page?

 If your business provides an interesting product or service to pilots, flight crews, aircraft, or users of the Miami Valley Hospital Heliport, you should consider listing it here.  To start the listing process, click on the button below
 
Add a business
 

Other Pages about Miami Valley Hospital Heliport

Update a link
 
Copyright © AirNav, LLC. All rights reserved. Privacy Policy  Contact